<?xml version="1.0" encoding="UTF-8" standalone="no" ?>
<gpx xmlns="http://www.topografix.com/GPX/1/1" xmlns:xsi="http://www.w3.org/2001/XMLSchema-instance" xsi:schemaLocation="http://www.topografix.com/GPX/1/1 http://www.topografix.com/GPX/1/1/gpx.xsd" version="1.1" creator="VisuGPX - https://www.visugpx.com">
  <metadata>
    <name>AVF-8-11-Draguignan - Le Malmont - Figanières</name>
    <desc><![CDATA[Variante : Draguignan - Le Malmont - Figanières par la Voie Romaine]]></desc>
  </metadata>
  <trk>
    <name><![CDATA[Malmont 2]]></name>
    <trkseg>
      <trkpt lat="43.56056" lon="6.47389">
        <ele>525.98</ele>
        <time>2013-11-08T13:05:22Z</time>
      </trkpt>
      <trkpt lat="43.56056" lon="6.47363">
        <ele>530.01</ele>
        <time>2013-11-08T13:05:25Z</time>
      </trkpt>
      <trkpt lat="43.56055" lon="6.47332">
        <ele>534.1</ele>
        <time>2013-11-08T13:05:33Z</time>
      </trkpt>
      <trkpt lat="43.56066" lon="6.47312">
        <ele>537.32</ele>
        <time>2013-11-08T13:05:55Z</time>
      </trkpt>
      <trkpt lat="43.56083" lon="6.47295">
        <ele>539.01</ele>
        <time>2013-11-08T13:06:55Z</time>
      </trkpt>
      <trkpt lat="43.56088" lon="6.47291">
        <ele>539.11</ele>
        <time>2013-11-08T13:07:08Z</time>
      </trkpt>
      <trkpt lat="43.56104" lon="6.47265">
        <ele>539.04</ele>
        <time>2013-11-08T13:08:24Z</time>
      </trkpt>
      <trkpt lat="43.56121" lon="6.47256">
        <ele>539.16</ele>
        <time>2013-11-08T13:08:49Z</time>
      </trkpt>
      <trkpt lat="43.56134" lon="6.47238">
        <ele>540.08</ele>
        <time>2013-11-08T13:09:09Z</time>
      </trkpt>
      <trkpt lat="43.56143" lon="6.47216">
        <ele>542.17</ele>
        <time>2013-11-08T13:09:29Z</time>
      </trkpt>
      <trkpt lat="43.56149" lon="6.47192">
        <ele>545.13</ele>
        <time>2013-11-08T13:09:53Z</time>
      </trkpt>
      <trkpt lat="43.56149" lon="6.47192">
        <ele>545.13</ele>
        <time>2013-11-08T13:09:53Z</time>
      </trkpt>
      <trkpt lat="43.56151" lon="6.47183">
        <ele>545.64</ele>
        <time>2013-11-08T13:10:29Z</time>
      </trkpt>
      <trkpt lat="43.56159" lon="6.4716">
        <ele>547.85</ele>
        <time>2013-11-08T13:11:21Z</time>
      </trkpt>
      <trkpt lat="43.56174" lon="6.47144">
        <ele>548.91</ele>
        <time>2013-11-08T13:11:49Z</time>
      </trkpt>
      <trkpt lat="43.56192" lon="6.47135">
        <ele>549.81</ele>
        <time>2013-11-08T13:12:07Z</time>
      </trkpt>
      <trkpt lat="43.56209" lon="6.47124">
        <ele>550.23</ele>
        <time>2013-11-08T13:12:27Z</time>
      </trkpt>
      <trkpt lat="43.56225" lon="6.4711">
        <ele>551.53</ele>
        <time>2013-11-08T13:12:45Z</time>
      </trkpt>
      <trkpt lat="43.5624" lon="6.47096">
        <ele>553.56</ele>
        <time>2013-11-08T13:13:05Z</time>
      </trkpt>
      <trkpt lat="43.5624" lon="6.47096">
        <ele>553.56</ele>
        <time>2013-11-08T13:13:05Z</time>
      </trkpt>
      <trkpt lat="43.56254" lon="6.47076">
        <ele>555.32</ele>
        <time>2013-11-08T13:13:31Z</time>
      </trkpt>
      <trkpt lat="43.56266" lon="6.47057">
        <ele>556.96</ele>
        <time>2013-11-08T13:13:51Z</time>
      </trkpt>
      <trkpt lat="43.56277" lon="6.47035">
        <ele>558.05</ele>
        <time>2013-11-08T13:14:08Z</time>
      </trkpt>
      <trkpt lat="43.56286" lon="6.47011">
        <ele>559.35</ele>
        <time>2013-11-08T13:14:26Z</time>
      </trkpt>
      <trkpt lat="43.563" lon="6.46994">
        <ele>560.04</ele>
        <time>2013-11-08T13:14:44Z</time>
      </trkpt>
      <trkpt lat="43.5631" lon="6.46973">
        <ele>560.54</ele>
        <time>2013-11-08T13:15:32Z</time>
      </trkpt>
      <trkpt lat="43.56325" lon="6.46956">
        <ele>560.49</ele>
        <time>2013-11-08T13:16:00Z</time>
      </trkpt>
      <trkpt lat="43.56325" lon="6.46956">
        <ele>560.49</ele>
        <time>2013-11-08T13:16:00Z</time>
      </trkpt>
      <trkpt lat="43.56339" lon="6.46938">
        <ele>560.24</ele>
        <time>2013-11-08T13:16:20Z</time>
      </trkpt>
      <trkpt lat="43.56354" lon="6.46921">
        <ele>558.48</ele>
        <time>2013-11-08T13:16:44Z</time>
      </trkpt>
      <trkpt lat="43.56367" lon="6.46902">
        <ele>557.81</ele>
        <time>2013-11-08T13:17:04Z</time>
      </trkpt>
      <trkpt lat="43.56377" lon="6.46879">
        <ele>557.69</ele>
        <time>2013-11-08T13:17:24Z</time>
      </trkpt>
      <trkpt lat="43.56387" lon="6.46858">
        <ele>556.81</ele>
        <time>2013-11-08T13:17:44Z</time>
      </trkpt>
      <trkpt lat="43.5639" lon="6.46833">
        <ele>557.25</ele>
        <time>2013-11-08T13:18:00Z</time>
      </trkpt>
      <trkpt lat="43.56387" lon="6.46807">
        <ele>557.61</ele>
        <time>2013-11-08T13:18:16Z</time>
      </trkpt>
      <trkpt lat="43.56388" lon="6.46781">
        <ele>557.71</ele>
        <time>2013-11-08T13:18:36Z</time>
      </trkpt>
      <trkpt lat="43.56388" lon="6.46756">
        <ele>557.01</ele>
        <time>2013-11-08T13:18:54Z</time>
      </trkpt>
      <trkpt lat="43.56388" lon="6.46756">
        <ele>557.01</ele>
        <time>2013-11-08T13:18:54Z</time>
      </trkpt>
      <trkpt lat="43.56389" lon="6.46729">
        <ele>555.98</ele>
        <time>2013-11-08T13:19:16Z</time>
      </trkpt>
      <trkpt lat="43.56398" lon="6.46706">
        <ele>554.94</ele>
        <time>2013-11-08T13:19:38Z</time>
      </trkpt>
      <trkpt lat="43.56414" lon="6.46691">
        <ele>552.95</ele>
        <time>2013-11-08T13:20:10Z</time>
      </trkpt>
      <trkpt lat="43.56427" lon="6.46672">
        <ele>552.2</ele>
        <time>2013-11-08T13:20:30Z</time>
      </trkpt>
      <trkpt lat="43.56437" lon="6.4665">
        <ele>552.28</ele>
        <time>2013-11-08T13:20:46Z</time>
      </trkpt>
      <trkpt lat="43.56449" lon="6.4663">
        <ele>552.08</ele>
        <time>2013-11-08T13:21:06Z</time>
      </trkpt>
      <trkpt lat="43.56465" lon="6.46617">
        <ele>550.22</ele>
        <time>2013-11-08T13:21:28Z</time>
      </trkpt>
      <trkpt lat="43.56475" lon="6.46595">
        <ele>549</ele>
        <time>2013-11-08T13:21:48Z</time>
      </trkpt>
      <trkpt lat="43.56475" lon="6.46595">
        <ele>549</ele>
        <time>2013-11-08T13:21:48Z</time>
      </trkpt>
      <trkpt lat="43.56486" lon="6.46576">
        <ele>547.57</ele>
        <time>2013-11-08T13:22:10Z</time>
      </trkpt>
      <trkpt lat="43.56494" lon="6.46554">
        <ele>546.19</ele>
        <time>2013-11-08T13:22:26Z</time>
      </trkpt>
      <trkpt lat="43.56491" lon="6.46529">
        <ele>544.87</ele>
        <time>2013-11-08T13:22:42Z</time>
      </trkpt>
      <trkpt lat="43.56486" lon="6.46503">
        <ele>543.61</ele>
        <time>2013-11-08T13:23:02Z</time>
      </trkpt>
      <trkpt lat="43.56484" lon="6.46477">
        <ele>541.77</ele>
        <time>2013-11-08T13:23:30Z</time>
      </trkpt>
      <trkpt lat="43.56487" lon="6.46451">
        <ele>536.59</ele>
        <time>2013-11-08T13:23:58Z</time>
      </trkpt>
      <trkpt lat="43.56488" lon="6.46425">
        <ele>534.19</ele>
        <time>2013-11-08T13:24:16Z</time>
      </trkpt>
      <trkpt lat="43.56488" lon="6.46425">
        <ele>534.19</ele>
        <time>2013-11-08T13:24:16Z</time>
      </trkpt>
      <trkpt lat="43.56496" lon="6.46402">
        <ele>530.43</ele>
        <time>2013-11-08T13:25:14Z</time>
      </trkpt>
      <trkpt lat="43.56506" lon="6.46379">
        <ele>528.67</ele>
        <time>2013-11-08T13:25:36Z</time>
      </trkpt>
      <trkpt lat="43.56519" lon="6.46358">
        <ele>527.13</ele>
        <time>2013-11-08T13:25:54Z</time>
      </trkpt>
      <trkpt lat="43.56535" lon="6.46342">
        <ele>526.46</ele>
        <time>2013-11-08T13:26:16Z</time>
      </trkpt>
      <trkpt lat="43.56552" lon="6.4633">
        <ele>525.03</ele>
        <time>2013-11-08T13:26:36Z</time>
      </trkpt>
      <trkpt lat="43.56558" lon="6.46306">
        <ele>523.39</ele>
        <time>2013-11-08T13:26:56Z</time>
      </trkpt>
      <trkpt lat="43.56558" lon="6.46306">
        <ele>523.39</ele>
        <time>2013-11-08T13:26:56Z</time>
      </trkpt>
      <trkpt lat="43.56574" lon="6.46297">
        <ele>520.37</ele>
        <time>2013-11-08T13:28:12Z</time>
      </trkpt>
      <trkpt lat="43.56593" lon="6.46293">
        <ele>520.2</ele>
        <time>2013-11-08T13:28:34Z</time>
      </trkpt>
      <trkpt lat="43.56611" lon="6.463">
        <ele>519.82</ele>
        <time>2013-11-08T13:28:54Z</time>
      </trkpt>
      <trkpt lat="43.56629" lon="6.46306">
        <ele>520.02</ele>
        <time>2013-11-08T13:29:10Z</time>
      </trkpt>
      <trkpt lat="43.56645" lon="6.46318">
        <ele>519.1</ele>
        <time>2013-11-08T13:29:32Z</time>
      </trkpt>
      <trkpt lat="43.56658" lon="6.46336">
        <ele>517.57</ele>
        <time>2013-11-08T13:29:50Z</time>
      </trkpt>
      <trkpt lat="43.56667" lon="6.46359">
        <ele>516.87</ele>
        <time>2013-11-08T13:30:08Z</time>
      </trkpt>
      <trkpt lat="43.56667" lon="6.46348">
        <ele>516.47</ele>
        <time>2013-11-08T13:30:42Z</time>
      </trkpt>
      <trkpt lat="43.56882" lon="6.46527">
        <ele>515.27</ele>
        <time>2013-11-08T13:35:40Z</time>
      </trkpt>
      <trkpt lat="43.56884" lon="6.4653">
        <ele>483.48</ele>
        <time>2013-11-08T13:36:00Z</time>
      </trkpt>
      <trkpt lat="43.56904" lon="6.46533">
        <ele>484.72</ele>
        <time>2013-11-08T13:36:20Z</time>
      </trkpt>
      <trkpt lat="43.5692" lon="6.4652">
        <ele>484.58</ele>
        <time>2013-11-08T13:36:34Z</time>
      </trkpt>
      <trkpt lat="43.56937" lon="6.46514">
        <ele>484.67</ele>
        <time>2013-11-08T13:36:58Z</time>
      </trkpt>
      <trkpt lat="43.56955" lon="6.46505">
        <ele>485.4</ele>
        <time>2013-11-08T13:37:35Z</time>
      </trkpt>
      <trkpt lat="43.56973" lon="6.46497">
        <ele>486.35</ele>
        <time>2013-11-08T13:38:01Z</time>
      </trkpt>
      <trkpt lat="43.56991" lon="6.46505">
        <ele>487.77</ele>
        <time>2013-11-08T13:38:23Z</time>
      </trkpt>
      <trkpt lat="43.56991" lon="6.46505">
        <ele>487.77</ele>
        <time>2013-11-08T13:38:23Z</time>
      </trkpt>
      <trkpt lat="43.57008" lon="6.46514">
        <ele>488.9</ele>
        <time>2013-11-08T13:38:57Z</time>
      </trkpt>
      <trkpt lat="43.57026" lon="6.46525">
        <ele>490.06</ele>
        <time>2013-11-08T13:39:17Z</time>
      </trkpt>
      <trkpt lat="43.57043" lon="6.46531">
        <ele>489.9</ele>
        <time>2013-11-08T13:39:35Z</time>
      </trkpt>
      <trkpt lat="43.57062" lon="6.46535">
        <ele>487.23</ele>
        <time>2013-11-08T13:40:01Z</time>
      </trkpt>
      <trkpt lat="43.5708" lon="6.46533">
        <ele>484.84</ele>
        <time>2013-11-08T13:40:59Z</time>
      </trkpt>
      <trkpt lat="43.571" lon="6.46535">
        <ele>485.03</ele>
        <time>2013-11-08T13:41:11Z</time>
      </trkpt>
      <trkpt lat="43.57117" lon="6.46543">
        <ele>483.14</ele>
        <time>2013-11-08T13:41:33Z</time>
      </trkpt>
      <trkpt lat="43.57131" lon="6.4656">
        <ele>483.21</ele>
        <time>2013-11-08T13:42:17Z</time>
      </trkpt>
      <trkpt lat="43.57148" lon="6.46573">
        <ele>483.08</ele>
        <time>2013-11-08T13:42:43Z</time>
      </trkpt>
      <trkpt lat="43.5716" lon="6.46595">
        <ele>481.35</ele>
        <time>2013-11-08T13:43:11Z</time>
      </trkpt>
      <trkpt lat="43.5717" lon="6.46616">
        <ele>482.16</ele>
        <time>2013-11-08T13:43:25Z</time>
      </trkpt>
      <trkpt lat="43.57179" lon="6.4664">
        <ele>480.91</ele>
        <time>2013-11-08T13:43:45Z</time>
      </trkpt>
      <trkpt lat="43.57184" lon="6.46666">
        <ele>479.05</ele>
        <time>2013-11-08T13:44:11Z</time>
      </trkpt>
      <trkpt lat="43.57184" lon="6.46666">
        <ele>479.05</ele>
        <time>2013-11-08T13:44:11Z</time>
      </trkpt>
      <trkpt lat="43.57185" lon="6.46693">
        <ele>477.37</ele>
        <time>2013-11-08T13:44:33Z</time>
      </trkpt>
      <trkpt lat="43.57193" lon="6.46716">
        <ele>475.6</ele>
        <time>2013-11-08T13:44:49Z</time>
      </trkpt>
      <trkpt lat="43.57205" lon="6.46736">
        <ele>475.84</ele>
        <time>2013-11-08T13:45:09Z</time>
      </trkpt>
      <trkpt lat="43.57222" lon="6.4675">
        <ele>475.58</ele>
        <time>2013-11-08T13:45:29Z</time>
      </trkpt>
      <trkpt lat="43.57232" lon="6.46772">
        <ele>475.76</ele>
        <time>2013-11-08T13:45:47Z</time>
      </trkpt>
      <trkpt lat="43.57242" lon="6.46795">
        <ele>474.8</ele>
        <time>2013-11-08T13:46:07Z</time>
      </trkpt>
      <trkpt lat="43.57239" lon="6.46824">
        <ele>476.62</ele>
        <time>2013-11-08T13:46:25Z</time>
      </trkpt>
      <trkpt lat="43.5724" lon="6.46853">
        <ele>477.92</ele>
        <time>2013-11-08T13:46:55Z</time>
      </trkpt>
      <trkpt lat="43.5724" lon="6.4688">
        <ele>476.86</ele>
        <time>2013-11-08T13:47:09Z</time>
      </trkpt>
      <trkpt lat="43.57238" lon="6.46906">
        <ele>474.49</ele>
        <time>2013-11-08T13:47:27Z</time>
      </trkpt>
      <trkpt lat="43.57245" lon="6.46932">
        <ele>471.78</ele>
        <time>2013-11-08T13:48:59Z</time>
      </trkpt>
      <trkpt lat="43.57244" lon="6.46959">
        <ele>472.17</ele>
        <time>2013-11-08T13:49:15Z</time>
      </trkpt>
      <trkpt lat="43.57245" lon="6.46986">
        <ele>473.51</ele>
        <time>2013-11-08T13:49:33Z</time>
      </trkpt>
      <trkpt lat="43.57242" lon="6.47011">
        <ele>473.75</ele>
        <time>2013-11-08T13:49:51Z</time>
      </trkpt>
      <trkpt lat="43.57247" lon="6.47037">
        <ele>474.1</ele>
        <time>2013-11-08T13:50:07Z</time>
      </trkpt>
      <trkpt lat="43.57247" lon="6.47037">
        <ele>474.1</ele>
        <time>2013-11-08T13:50:07Z</time>
      </trkpt>
      <trkpt lat="43.57248" lon="6.47063">
        <ele>476.15</ele>
        <time>2013-11-08T13:50:29Z</time>
      </trkpt>
      <trkpt lat="43.57255" lon="6.47086">
        <ele>475.76</ele>
        <time>2013-11-08T13:50:43Z</time>
      </trkpt>
      <trkpt lat="43.57265" lon="6.47108">
        <ele>473.45</ele>
        <time>2013-11-08T13:50:59Z</time>
      </trkpt>
      <trkpt lat="43.57274" lon="6.47133">
        <ele>471.83</ele>
        <time>2013-11-08T13:51:15Z</time>
      </trkpt>
      <trkpt lat="43.57285" lon="6.47156">
        <ele>470.78</ele>
        <time>2013-11-08T13:51:41Z</time>
      </trkpt>
      <trkpt lat="43.57294" lon="6.47181">
        <ele>469.27</ele>
        <time>2013-11-08T13:52:01Z</time>
      </trkpt>
      <trkpt lat="43.57296" lon="6.47208">
        <ele>467.68</ele>
        <time>2013-11-08T13:52:21Z</time>
      </trkpt>
      <trkpt lat="43.573" lon="6.47234">
        <ele>464.14</ele>
        <time>2013-11-08T13:52:41Z</time>
      </trkpt>
      <trkpt lat="43.57297" lon="6.47259">
        <ele>463.87</ele>
        <time>2013-11-08T13:52:55Z</time>
      </trkpt>
      <trkpt lat="43.57291" lon="6.47284">
        <ele>461.39</ele>
        <time>2013-11-08T13:53:17Z</time>
      </trkpt>
      <trkpt lat="43.57291" lon="6.47284">
        <ele>461.39</ele>
        <time>2013-11-08T13:53:17Z</time>
      </trkpt>
      <trkpt lat="43.57285" lon="6.47309">
        <ele>458.59</ele>
        <time>2013-11-08T13:53:37Z</time>
      </trkpt>
      <trkpt lat="43.57281" lon="6.47335">
        <ele>458.68</ele>
        <time>2013-11-08T13:53:51Z</time>
      </trkpt>
      <trkpt lat="43.57284" lon="6.4736">
        <ele>453.37</ele>
        <time>2013-11-08T13:55:03Z</time>
      </trkpt>
      <trkpt lat="43.57283" lon="6.47385">
        <ele>450.54</ele>
        <time>2013-11-08T13:55:31Z</time>
      </trkpt>
      <trkpt lat="43.57288" lon="6.4741">
        <ele>450.16</ele>
        <time>2013-11-08T13:56:06Z</time>
      </trkpt>
      <trkpt lat="43.57288" lon="6.4741">
        <ele>450.16</ele>
        <time>2013-11-08T13:56:06Z</time>
      </trkpt>
      <trkpt lat="43.57285" lon="6.47435">
        <ele>447.73</ele>
        <time>2013-11-08T13:56:34Z</time>
      </trkpt>
      <trkpt lat="43.57274" lon="6.47455">
        <ele>449.16</ele>
        <time>2013-11-08T13:56:54Z</time>
      </trkpt>
      <trkpt lat="43.57263" lon="6.47474">
        <ele>449.7</ele>
        <time>2013-11-08T13:57:12Z</time>
      </trkpt>
      <trkpt lat="43.57251" lon="6.47495">
        <ele>448.71</ele>
        <time>2013-11-08T13:57:46Z</time>
      </trkpt>
      <trkpt lat="43.57244" lon="6.47517">
        <ele>447.45</ele>
        <time>2013-11-08T13:58:02Z</time>
      </trkpt>
      <trkpt lat="43.57252" lon="6.4751">
        <ele>446.6</ele>
        <time>2013-11-08T13:59:08Z</time>
      </trkpt>
      <trkpt lat="43.57252" lon="6.4751">
        <ele>446.6</ele>
        <time>2013-11-08T13:59:08Z</time>
      </trkpt>
      <trkpt lat="43.57248" lon="6.47509">
        <ele>446.91</ele>
        <time>2013-11-08T13:59:34Z</time>
      </trkpt>
      <trkpt lat="43.57246" lon="6.4751">
        <ele>447.23</ele>
        <time>2013-11-08T14:00:06Z</time>
      </trkpt>
      <trkpt lat="43.57233" lon="6.47529">
        <ele>447.05</ele>
        <time>2013-11-08T14:00:16Z</time>
      </trkpt>
      <trkpt lat="43.57224" lon="6.47556">
        <ele>449.86</ele>
        <time>2013-11-08T14:01:02Z</time>
      </trkpt>
      <trkpt lat="43.57218" lon="6.47582">
        <ele>450.85</ele>
        <time>2013-11-08T14:01:20Z</time>
      </trkpt>
      <trkpt lat="43.57217" lon="6.47607">
        <ele>450.52</ele>
        <time>2013-11-08T14:01:32Z</time>
      </trkpt>
      <trkpt lat="43.57219" lon="6.47633">
        <ele>449.49</ele>
        <time>2013-11-08T14:01:50Z</time>
      </trkpt>
      <trkpt lat="43.57216" lon="6.47659">
        <ele>447.29</ele>
        <time>2013-11-08T14:02:10Z</time>
      </trkpt>
      <trkpt lat="43.57216" lon="6.47659">
        <ele>447.29</ele>
        <time>2013-11-08T14:02:10Z</time>
      </trkpt>
      <trkpt lat="43.57213" lon="6.47685">
        <ele>446.27</ele>
        <time>2013-11-08T14:02:28Z</time>
      </trkpt>
      <trkpt lat="43.57213" lon="6.47711">
        <ele>446.6</ele>
        <time>2013-11-08T14:02:48Z</time>
      </trkpt>
      <trkpt lat="43.5721" lon="6.47736">
        <ele>447.02</ele>
        <time>2013-11-08T14:03:04Z</time>
      </trkpt>
      <trkpt lat="43.57208" lon="6.47763">
        <ele>446.88</ele>
        <time>2013-11-08T14:03:24Z</time>
      </trkpt>
      <trkpt lat="43.57206" lon="6.4779">
        <ele>447.83</ele>
        <time>2013-11-08T14:03:42Z</time>
      </trkpt>
      <trkpt lat="43.572" lon="6.47814">
        <ele>447.96</ele>
        <time>2013-11-08T14:04:02Z</time>
      </trkpt>
      <trkpt lat="43.57194" lon="6.4784">
        <ele>449.02</ele>
        <time>2013-11-08T14:04:20Z</time>
      </trkpt>
      <trkpt lat="43.57195" lon="6.47865">
        <ele>448.2</ele>
        <time>2013-11-08T14:04:40Z</time>
      </trkpt>
      <trkpt lat="43.5719" lon="6.47891">
        <ele>448.05</ele>
        <time>2013-11-08T14:05:00Z</time>
      </trkpt>
      <trkpt lat="43.57176" lon="6.47908">
        <ele>446.89</ele>
        <time>2013-11-08T14:05:20Z</time>
      </trkpt>
      <trkpt lat="43.57176" lon="6.47908">
        <ele>446.89</ele>
        <time>2013-11-08T14:05:20Z</time>
      </trkpt>
      <trkpt lat="43.57161" lon="6.47924">
        <ele>443.78</ele>
        <time>2013-11-08T14:05:40Z</time>
      </trkpt>
      <trkpt lat="43.57152" lon="6.47947">
        <ele>439.89</ele>
        <time>2013-11-08T14:05:56Z</time>
      </trkpt>
      <trkpt lat="43.5714" lon="6.47967">
        <ele>435.75</ele>
        <time>2013-11-08T14:06:16Z</time>
      </trkpt>
      <trkpt lat="43.57129" lon="6.47987">
        <ele>433.54</ele>
        <time>2013-11-08T14:06:34Z</time>
      </trkpt>
      <trkpt lat="43.57117" lon="6.48007">
        <ele>430.12</ele>
        <time>2013-11-08T14:07:00Z</time>
      </trkpt>
      <trkpt lat="43.57107" lon="6.48029">
        <ele>427.1</ele>
        <time>2013-11-08T14:07:22Z</time>
      </trkpt>
      <trkpt lat="43.57098" lon="6.48052">
        <ele>425.6</ele>
        <time>2013-11-08T14:07:44Z</time>
      </trkpt>
      <trkpt lat="43.57091" lon="6.48077">
        <ele>428.61</ele>
        <time>2013-11-08T14:08:06Z</time>
      </trkpt>
      <trkpt lat="43.57091" lon="6.48077">
        <ele>428.61</ele>
        <time>2013-11-08T14:08:06Z</time>
      </trkpt>
      <trkpt lat="43.57086" lon="6.48087">
        <ele>436.81</ele>
        <time>2013-11-08T14:09:49Z</time>
      </trkpt>
      <trkpt lat="43.57076" lon="6.48111">
        <ele>432.33</ele>
        <time>2013-11-08T14:10:18Z</time>
      </trkpt>
      <trkpt lat="43.57071" lon="6.48141">
        <ele>429.73</ele>
        <time>2013-11-08T14:10:36Z</time>
      </trkpt>
      <trkpt lat="43.57064" lon="6.48163">
        <ele>427.24</ele>
        <time>2013-11-08T14:10:54Z</time>
      </trkpt>
      <trkpt lat="43.57053" lon="6.48185">
        <ele>423.91</ele>
        <time>2013-11-08T14:11:13Z</time>
      </trkpt>
      <trkpt lat="43.57053" lon="6.48185">
        <ele>423.91</ele>
        <time>2013-11-08T14:11:13Z</time>
      </trkpt>
      <trkpt lat="43.57045" lon="6.48211">
        <ele>421.89</ele>
        <time>2013-11-08T14:11:33Z</time>
      </trkpt>
      <trkpt lat="43.5704" lon="6.48237">
        <ele>420.2</ele>
        <time>2013-11-08T14:11:55Z</time>
      </trkpt>
      <trkpt lat="43.5704" lon="6.48251">
        <ele>417.55</ele>
        <time>2013-11-08T14:12:37Z</time>
      </trkpt>
      <trkpt lat="43.5704" lon="6.48277">
        <ele>413.23</ele>
        <time>2013-11-08T14:13:01Z</time>
      </trkpt>
      <trkpt lat="43.57053" lon="6.48294">
        <ele>409.4</ele>
        <time>2013-11-08T14:13:39Z</time>
      </trkpt>
      <trkpt lat="43.57064" lon="6.48318">
        <ele>407.52</ele>
        <time>2013-11-08T14:14:00Z</time>
      </trkpt>
      <trkpt lat="43.57071" lon="6.48344">
        <ele>408.35</ele>
        <time>2013-11-08T14:14:14Z</time>
      </trkpt>
      <trkpt lat="43.57084" lon="6.48364">
        <ele>409.47</ele>
        <time>2013-11-08T14:14:28Z</time>
      </trkpt>
      <trkpt lat="43.57073" lon="6.48377">
        <ele>416.81</ele>
        <time>2013-11-08T14:15:28Z</time>
      </trkpt>
      <trkpt lat="43.57057" lon="6.48359">
        <ele>415.61</ele>
        <time>2013-11-08T14:15:46Z</time>
      </trkpt>
      <trkpt lat="43.57048" lon="6.48336">
        <ele>406.37</ele>
        <time>2013-11-08T14:16:06Z</time>
      </trkpt>
      <trkpt lat="43.57035" lon="6.48318">
        <ele>403.99</ele>
        <time>2013-11-08T14:16:16Z</time>
      </trkpt>
      <trkpt lat="43.57021" lon="6.48298">
        <ele>401.18</ele>
        <time>2013-11-08T14:16:36Z</time>
      </trkpt>
      <trkpt lat="43.57015" lon="6.48274">
        <ele>398.22</ele>
        <time>2013-11-08T14:17:02Z</time>
      </trkpt>
      <trkpt lat="43.57015" lon="6.48274">
        <ele>398.22</ele>
        <time>2013-11-08T14:17:02Z</time>
      </trkpt>
      <trkpt lat="43.57013" lon="6.48251">
        <ele>396.15</ele>
        <time>2013-11-08T14:17:58Z</time>
      </trkpt>
      <trkpt lat="43.57017" lon="6.48263">
        <ele>395.33</ele>
        <time>2013-11-08T14:19:11Z</time>
      </trkpt>
      <trkpt lat="43.56995" lon="6.48265">
        <ele>396.86</ele>
        <time>2013-11-08T14:20:03Z</time>
      </trkpt>
      <trkpt lat="43.56975" lon="6.4828">
        <ele>397.22</ele>
        <time>2013-11-08T14:21:05Z</time>
      </trkpt>
      <trkpt lat="43.56959" lon="6.4829">
        <ele>397.68</ele>
        <time>2013-11-08T14:21:33Z</time>
      </trkpt>
      <trkpt lat="43.56942" lon="6.48301">
        <ele>398.87</ele>
        <time>2013-11-08T14:22:13Z</time>
      </trkpt>
      <trkpt lat="43.56929" lon="6.48319">
        <ele>400.19</ele>
        <time>2013-11-08T14:22:33Z</time>
      </trkpt>
      <trkpt lat="43.56913" lon="6.48331">
        <ele>399.45</ele>
        <time>2013-11-08T14:22:53Z</time>
      </trkpt>
      <trkpt lat="43.56897" lon="6.48343">
        <ele>400.07</ele>
        <time>2013-11-08T14:23:13Z</time>
      </trkpt>
      <trkpt lat="43.56897" lon="6.48343">
        <ele>400.07</ele>
        <time>2013-11-08T14:23:13Z</time>
      </trkpt>
      <trkpt lat="43.5688" lon="6.48354">
        <ele>400.91</ele>
        <time>2013-11-08T14:23:37Z</time>
      </trkpt>
      <trkpt lat="43.56872" lon="6.48377">
        <ele>402.84</ele>
        <time>2013-11-08T14:24:09Z</time>
      </trkpt>
      <trkpt lat="43.56855" lon="6.48386">
        <ele>399.31</ele>
        <time>2013-11-08T14:24:31Z</time>
      </trkpt>
      <trkpt lat="43.56837" lon="6.48393">
        <ele>403.17</ele>
        <time>2013-11-08T14:24:55Z</time>
      </trkpt>
      <trkpt lat="43.56823" lon="6.4841">
        <ele>407</ele>
        <time>2013-11-08T14:25:31Z</time>
      </trkpt>
      <trkpt lat="43.56811" lon="6.48431">
        <ele>410.48</ele>
        <time>2013-11-08T14:26:04Z</time>
      </trkpt>
      <trkpt lat="43.56797" lon="6.48446">
        <ele>411.1</ele>
        <time>2013-11-08T14:26:21Z</time>
      </trkpt>
      <trkpt lat="43.56797" lon="6.48446">
        <ele>411.1</ele>
        <time>2013-11-08T14:26:21Z</time>
      </trkpt>
      <trkpt lat="43.56797" lon="6.48459">
        <ele>411.15</ele>
        <time>2013-11-08T14:26:55Z</time>
      </trkpt>
      <trkpt lat="43.56794" lon="6.48451">
        <ele>411.1</ele>
        <time>2013-11-08T14:28:31Z</time>
      </trkpt>
      <trkpt lat="43.56779" lon="6.48467">
        <ele>411.06</ele>
        <time>2013-11-08T14:28:59Z</time>
      </trkpt>
      <trkpt lat="43.56779" lon="6.48467">
        <ele>411.06</ele>
        <time>2013-11-08T14:28:59Z</time>
      </trkpt>
      <trkpt lat="43.56765" lon="6.48477">
        <ele>413.17</ele>
        <time>2013-11-08T14:29:29Z</time>
      </trkpt>
      <trkpt lat="43.56751" lon="6.48494">
        <ele>416.34</ele>
        <time>2013-11-08T14:29:43Z</time>
      </trkpt>
      <trkpt lat="43.56738" lon="6.48513">
        <ele>417.23</ele>
        <time>2013-11-08T14:30:07Z</time>
      </trkpt>
      <trkpt lat="43.5673" lon="6.48537">
        <ele>421.73</ele>
        <time>2013-11-08T14:30:33Z</time>
      </trkpt>
      <trkpt lat="43.56717" lon="6.48556">
        <ele>422.83</ele>
        <time>2013-11-08T14:30:57Z</time>
      </trkpt>
      <trkpt lat="43.56704" lon="6.48574">
        <ele>422.98</ele>
        <time>2013-11-08T14:31:29Z</time>
      </trkpt>
      <trkpt lat="43.56688" lon="6.48591">
        <ele>423.45</ele>
        <time>2013-11-08T14:31:59Z</time>
      </trkpt>
      <trkpt lat="43.56678" lon="6.48604">
        <ele>429.3</ele>
        <time>2013-11-08T14:32:27Z</time>
      </trkpt>
      <trkpt lat="43.56667" lon="6.48623">
        <ele>431.32</ele>
        <time>2013-11-08T14:32:37Z</time>
      </trkpt>
      <trkpt lat="43.56655" lon="6.48643">
        <ele>432.66</ele>
        <time>2013-11-08T14:32:53Z</time>
      </trkpt>
      <trkpt lat="43.5664" lon="6.48656">
        <ele>434.45</ele>
        <time>2013-11-08T14:33:15Z</time>
      </trkpt>
      <trkpt lat="43.56625" lon="6.48671">
        <ele>434.02</ele>
        <time>2013-11-08T14:33:51Z</time>
      </trkpt>
      <trkpt lat="43.56617" lon="6.48683">
        <ele>436.55</ele>
        <time>2013-11-08T14:34:43Z</time>
      </trkpt>
      <trkpt lat="43.56609" lon="6.4871">
        <ele>436.71</ele>
        <time>2013-11-08T14:34:53Z</time>
      </trkpt>
      <trkpt lat="43.56601" lon="6.48737">
        <ele>438.44</ele>
        <time>2013-11-08T14:35:19Z</time>
      </trkpt>
      <trkpt lat="43.56601" lon="6.48737">
        <ele>438.44</ele>
        <time>2013-11-08T14:35:19Z</time>
      </trkpt>
      <trkpt lat="43.56564" lon="6.48771">
        <ele>443.61</ele>
        <time>2013-11-08T14:37:03Z</time>
      </trkpt>
      <trkpt lat="43.56546" lon="6.48767">
        <ele>444.74</ele>
        <time>2013-11-08T14:37:31Z</time>
      </trkpt>
      <trkpt lat="43.56527" lon="6.48762">
        <ele>446.97</ele>
        <time>2013-11-08T14:37:51Z</time>
      </trkpt>
      <trkpt lat="43.56522" lon="6.48757">
        <ele>447.68</ele>
        <time>2013-11-08T14:38:09Z</time>
      </trkpt>
      <trkpt lat="43.56522" lon="6.48757">
        <ele>447.68</ele>
        <time>2013-11-08T14:38:09Z</time>
      </trkpt>
      <trkpt lat="43.56508" lon="6.4874">
        <ele>448.1</ele>
        <time>2013-11-08T14:38:29Z</time>
      </trkpt>
      <trkpt lat="43.5649" lon="6.48731">
        <ele>449.37</ele>
        <time>2013-11-08T14:39:05Z</time>
      </trkpt>
      <trkpt lat="43.5649" lon="6.48723">
        <ele>450.02</ele>
        <time>2013-11-08T14:39:15Z</time>
      </trkpt>
      <trkpt lat="43.56479" lon="6.48702">
        <ele>450.21</ele>
        <time>2013-11-08T14:39:33Z</time>
      </trkpt>
      <trkpt lat="43.56468" lon="6.48678">
        <ele>451.18</ele>
        <time>2013-11-08T14:39:57Z</time>
      </trkpt>
      <trkpt lat="43.5646" lon="6.48655">
        <ele>450.33</ele>
        <time>2013-11-08T14:40:15Z</time>
      </trkpt>
      <trkpt lat="43.56451" lon="6.48633">
        <ele>451.7</ele>
        <time>2013-11-08T14:40:35Z</time>
      </trkpt>
      <trkpt lat="43.56442" lon="6.48609">
        <ele>452.34</ele>
        <time>2013-11-08T14:40:55Z</time>
      </trkpt>
      <trkpt lat="43.56442" lon="6.48609">
        <ele>452.34</ele>
        <time>2013-11-08T14:40:55Z</time>
      </trkpt>
      <trkpt lat="43.56443" lon="6.486">
        <ele>452.1</ele>
        <time>2013-11-08T14:41:29Z</time>
      </trkpt>
      <trkpt lat="43.56446" lon="6.48609">
        <ele>453.29</ele>
        <time>2013-11-08T14:42:08Z</time>
      </trkpt>
      <trkpt lat="43.56442" lon="6.48612">
        <ele>452.79</ele>
        <time>2013-11-08T14:42:32Z</time>
      </trkpt>
      <trkpt lat="43.56439" lon="6.48615">
        <ele>455.13</ele>
        <time>2013-11-08T14:43:36Z</time>
      </trkpt>
      <trkpt lat="43.56442" lon="6.48603">
        <ele>458.11</ele>
        <time>2013-11-08T14:44:37Z</time>
      </trkpt>
      <trkpt lat="43.56439" lon="6.48602">
        <ele>458.15</ele>
        <time>2013-11-08T14:45:15Z</time>
      </trkpt>
      <trkpt lat="43.56424" lon="6.48584">
        <ele>456.8</ele>
        <time>2013-11-08T14:45:31Z</time>
      </trkpt>
      <trkpt lat="43.56409" lon="6.48571">
        <ele>454.76</ele>
        <time>2013-11-08T14:45:47Z</time>
      </trkpt>
      <trkpt lat="43.5639" lon="6.48563">
        <ele>451.86</ele>
        <time>2013-11-08T14:46:09Z</time>
      </trkpt>
      <trkpt lat="43.56372" lon="6.48556">
        <ele>451.56</ele>
        <time>2013-11-08T14:46:25Z</time>
      </trkpt>
      <trkpt lat="43.56353" lon="6.48559">
        <ele>451.23</ele>
        <time>2013-11-08T14:46:43Z</time>
      </trkpt>
      <trkpt lat="43.56335" lon="6.48555">
        <ele>452.74</ele>
        <time>2013-11-08T14:47:13Z</time>
      </trkpt>
      <trkpt lat="43.56335" lon="6.48555">
        <ele>452.74</ele>
        <time>2013-11-08T14:47:13Z</time>
      </trkpt>
      <trkpt lat="43.56318" lon="6.48548">
        <ele>454.43</ele>
        <time>2013-11-08T14:47:27Z</time>
      </trkpt>
      <trkpt lat="43.56303" lon="6.48532">
        <ele>456.66</ele>
        <time>2013-11-08T14:47:51Z</time>
      </trkpt>
      <trkpt lat="43.56287" lon="6.4852">
        <ele>454.68</ele>
        <time>2013-11-08T14:48:17Z</time>
      </trkpt>
      <trkpt lat="43.56268" lon="6.48511">
        <ele>453.45</ele>
        <time>2013-11-08T14:48:37Z</time>
      </trkpt>
      <trkpt lat="43.56254" lon="6.48493">
        <ele>452.26</ele>
        <time>2013-11-08T14:49:03Z</time>
      </trkpt>
      <trkpt lat="43.56245" lon="6.4847">
        <ele>451</ele>
        <time>2013-11-08T14:49:51Z</time>
      </trkpt>
      <trkpt lat="43.56232" lon="6.48451">
        <ele>448.2</ele>
        <time>2013-11-08T14:50:17Z</time>
      </trkpt>
      <trkpt lat="43.56232" lon="6.48451">
        <ele>448.2</ele>
        <time>2013-11-08T14:50:17Z</time>
      </trkpt>
      <trkpt lat="43.56216" lon="6.48438">
        <ele>446.8</ele>
        <time>2013-11-08T14:50:43Z</time>
      </trkpt>
      <trkpt lat="43.562" lon="6.4842">
        <ele>446.72</ele>
        <time>2013-11-08T14:51:03Z</time>
      </trkpt>
      <trkpt lat="43.56185" lon="6.48406">
        <ele>446.99</ele>
        <time>2013-11-08T14:51:23Z</time>
      </trkpt>
      <trkpt lat="43.56167" lon="6.48413">
        <ele>448.31</ele>
        <time>2013-11-08T14:51:51Z</time>
      </trkpt>
      <trkpt lat="43.56151" lon="6.48426">
        <ele>451.05</ele>
        <time>2013-11-08T14:52:19Z</time>
      </trkpt>
      <trkpt lat="43.56132" lon="6.48434">
        <ele>453.07</ele>
        <time>2013-11-08T14:52:47Z</time>
      </trkpt>
      <trkpt lat="43.56132" lon="6.48434">
        <ele>453.07</ele>
        <time>2013-11-08T14:52:47Z</time>
      </trkpt>
      <trkpt lat="43.56114" lon="6.48444">
        <ele>455.39</ele>
        <time>2013-11-08T14:53:55Z</time>
      </trkpt>
      <trkpt lat="43.56096" lon="6.48442">
        <ele>459.16</ele>
        <time>2013-11-08T14:55:13Z</time>
      </trkpt>
      <trkpt lat="43.56094" lon="6.48449">
        <ele>459.08</ele>
        <time>2013-11-08T14:55:35Z</time>
      </trkpt>
      <trkpt lat="43.56101" lon="6.48446">
        <ele>458.91</ele>
        <time>2013-11-08T14:56:17Z</time>
      </trkpt>
      <trkpt lat="43.56101" lon="6.48446">
        <ele>458.91</ele>
        <time>2013-11-08T14:56:17Z</time>
      </trkpt>
      <trkpt lat="43.561" lon="6.48444">
        <ele>459.9</ele>
        <time>2013-11-08T14:57:41Z</time>
      </trkpt>
      <trkpt lat="43.56097" lon="6.48442">
        <ele>460.51</ele>
        <time>2013-11-08T14:58:15Z</time>
      </trkpt>
      <trkpt lat="43.56079" lon="6.48449">
        <ele>459.14</ele>
        <time>2013-11-08T14:58:41Z</time>
      </trkpt>
      <trkpt lat="43.56061" lon="6.48457">
        <ele>459.69</ele>
        <time>2013-11-08T14:59:17Z</time>
      </trkpt>
      <trkpt lat="43.56061" lon="6.48457">
        <ele>459.69</ele>
        <time>2013-11-08T14:59:17Z</time>
      </trkpt>
      <trkpt lat="43.56043" lon="6.48453">
        <ele>459.39</ele>
        <time>2013-11-08T15:00:01Z</time>
      </trkpt>
      <trkpt lat="43.56025" lon="6.48458">
        <ele>458.93</ele>
        <time>2013-11-08T15:00:25Z</time>
      </trkpt>
      <trkpt lat="43.56006" lon="6.48453">
        <ele>458.85</ele>
        <time>2013-11-08T15:00:45Z</time>
      </trkpt>
      <trkpt lat="43.55987" lon="6.48451">
        <ele>459.25</ele>
        <time>2013-11-08T15:01:07Z</time>
      </trkpt>
      <trkpt lat="43.55969" lon="6.48444">
        <ele>458.45</ele>
        <time>2013-11-08T15:01:29Z</time>
      </trkpt>
      <trkpt lat="43.5595" lon="6.48446">
        <ele>457.51</ele>
        <time>2013-11-08T15:01:59Z</time>
      </trkpt>
      <trkpt lat="43.5595" lon="6.48446">
        <ele>457.51</ele>
        <time>2013-11-08T15:01:59Z</time>
      </trkpt>
      <trkpt lat="43.55935" lon="6.48463">
        <ele>456.17</ele>
        <time>2013-11-08T15:02:43Z</time>
      </trkpt>
      <trkpt lat="43.55926" lon="6.48485">
        <ele>454.98</ele>
        <time>2013-11-08T15:03:19Z</time>
      </trkpt>
      <trkpt lat="43.5591" lon="6.48496">
        <ele>455.96</ele>
        <time>2013-11-08T15:03:41Z</time>
      </trkpt>
      <trkpt lat="43.55892" lon="6.48505">
        <ele>459.23</ele>
        <time>2013-11-08T15:04:15Z</time>
      </trkpt>
      <trkpt lat="43.55873" lon="6.48512">
        <ele>458.22</ele>
        <time>2013-11-08T15:04:45Z</time>
      </trkpt>
      <trkpt lat="43.55855" lon="6.48517">
        <ele>456.44</ele>
        <time>2013-11-08T15:05:09Z</time>
      </trkpt>
      <trkpt lat="43.55855" lon="6.48517">
        <ele>456.44</ele>
        <time>2013-11-08T15:05:09Z</time>
      </trkpt>
      <trkpt lat="43.55836" lon="6.48522">
        <ele>454.34</ele>
        <time>2013-11-08T15:05:31Z</time>
      </trkpt>
      <trkpt lat="43.55819" lon="6.48529">
        <ele>453.22</ele>
        <time>2013-11-08T15:05:49Z</time>
      </trkpt>
      <trkpt lat="43.55802" lon="6.48517">
        <ele>450.56</ele>
        <time>2013-11-08T15:06:15Z</time>
      </trkpt>
      <trkpt lat="43.55784" lon="6.48511">
        <ele>446.98</ele>
        <time>2013-11-08T15:06:35Z</time>
      </trkpt>
      <trkpt lat="43.55765" lon="6.48507">
        <ele>445.77</ele>
        <time>2013-11-08T15:06:51Z</time>
      </trkpt>
      <trkpt lat="43.55746" lon="6.48502">
        <ele>445.3</ele>
        <time>2013-11-08T15:07:07Z</time>
      </trkpt>
      <trkpt lat="43.55725" lon="6.48498">
        <ele>444.57</ele>
        <time>2013-11-08T15:07:29Z</time>
      </trkpt>
      <trkpt lat="43.55706" lon="6.48494">
        <ele>444.73</ele>
        <time>2013-11-08T15:07:41Z</time>
      </trkpt>
      <trkpt lat="43.55688" lon="6.48485">
        <ele>443.58</ele>
        <time>2013-11-08T15:08:19Z</time>
      </trkpt>
      <trkpt lat="43.55688" lon="6.48485">
        <ele>443.58</ele>
        <time>2013-11-08T15:08:19Z</time>
      </trkpt>
      <trkpt lat="43.5567" lon="6.4848">
        <ele>441.27</ele>
        <time>2013-11-08T15:08:39Z</time>
      </trkpt>
      <trkpt lat="43.55651" lon="6.48478">
        <ele>439.23</ele>
        <time>2013-11-08T15:09:09Z</time>
      </trkpt>
      <trkpt lat="43.55633" lon="6.48475">
        <ele>437.55</ele>
        <time>2013-11-08T15:09:27Z</time>
      </trkpt>
      <trkpt lat="43.55613" lon="6.48474">
        <ele>435.27</ele>
        <time>2013-11-08T15:09:43Z</time>
      </trkpt>
      <trkpt lat="43.55595" lon="6.48476">
        <ele>433.52</ele>
        <time>2013-11-08T15:10:03Z</time>
      </trkpt>
      <trkpt lat="43.55576" lon="6.48472">
        <ele>433.04</ele>
        <time>2013-11-08T15:10:21Z</time>
      </trkpt>
      <trkpt lat="43.55556" lon="6.4847">
        <ele>431.71</ele>
        <time>2013-11-08T15:10:39Z</time>
      </trkpt>
      <trkpt lat="43.55538" lon="6.4847">
        <ele>431.01</ele>
        <time>2013-11-08T15:10:55Z</time>
      </trkpt>
      <trkpt lat="43.55538" lon="6.4847">
        <ele>431.01</ele>
        <time>2013-11-08T15:10:55Z</time>
      </trkpt>
      <trkpt lat="43.55519" lon="6.48467">
        <ele>429.61</ele>
        <time>2013-11-08T15:11:37Z</time>
      </trkpt>
      <trkpt lat="43.55499" lon="6.48467">
        <ele>425.7</ele>
        <time>2013-11-08T15:12:34Z</time>
      </trkpt>
      <trkpt lat="43.5548" lon="6.48467">
        <ele>425.22</ele>
        <time>2013-11-08T15:12:49Z</time>
      </trkpt>
      <trkpt lat="43.55461" lon="6.48469">
        <ele>424.52</ele>
        <time>2013-11-08T15:13:05Z</time>
      </trkpt>
      <trkpt lat="43.55442" lon="6.48476">
        <ele>425.15</ele>
        <time>2013-11-08T15:13:21Z</time>
      </trkpt>
      <trkpt lat="43.55423" lon="6.48476">
        <ele>425.27</ele>
        <time>2013-11-08T15:13:41Z</time>
      </trkpt>
      <trkpt lat="43.55423" lon="6.48476">
        <ele>425.27</ele>
        <time>2013-11-08T15:13:41Z</time>
      </trkpt>
      <trkpt lat="43.55404" lon="6.48475">
        <ele>421.64</ele>
        <time>2013-11-08T15:14:27Z</time>
      </trkpt>
      <trkpt lat="43.55389" lon="6.4846">
        <ele>421.31</ele>
        <time>2013-11-08T15:14:43Z</time>
      </trkpt>
      <trkpt lat="43.55388" lon="6.48447">
        <ele>421.33</ele>
        <time>2013-11-08T15:15:12Z</time>
      </trkpt>
      <trkpt lat="43.55375" lon="6.48429">
        <ele>420.93</ele>
        <time>2013-11-08T15:15:37Z</time>
      </trkpt>
      <trkpt lat="43.55348" lon="6.48362">
        <ele>447.07</ele>
        <time>2013-11-08T15:16:37Z</time>
      </trkpt>
      <trkpt lat="43.55332" lon="6.48347">
        <ele>438.77</ele>
        <time>2013-11-08T15:16:57Z</time>
      </trkpt>
      <trkpt lat="43.55321" lon="6.48327">
        <ele>430.64</ele>
        <time>2013-11-08T15:17:12Z</time>
      </trkpt>
      <trkpt lat="43.55321" lon="6.48327">
        <ele>430.64</ele>
        <time>2013-11-08T15:17:12Z</time>
      </trkpt>
      <trkpt lat="43.55316" lon="6.48303">
        <ele>423.49</ele>
        <time>2013-11-08T15:17:34Z</time>
      </trkpt>
      <trkpt lat="43.55315" lon="6.48278">
        <ele>419.26</ele>
        <time>2013-11-08T15:17:48Z</time>
      </trkpt>
      <trkpt lat="43.55318" lon="6.48253">
        <ele>414.92</ele>
        <time>2013-11-08T15:18:02Z</time>
      </trkpt>
      <trkpt lat="43.5532" lon="6.48226">
        <ele>413.73</ele>
        <time>2013-11-08T15:18:22Z</time>
      </trkpt>
      <trkpt lat="43.55326" lon="6.48202">
        <ele>413.26</ele>
        <time>2013-11-08T15:18:42Z</time>
      </trkpt>
      <trkpt lat="43.55335" lon="6.48181">
        <ele>411.1</ele>
        <time>2013-11-08T15:19:00Z</time>
      </trkpt>
      <trkpt lat="43.55336" lon="6.48156">
        <ele>408.53</ele>
        <time>2013-11-08T15:19:18Z</time>
      </trkpt>
      <trkpt lat="43.55338" lon="6.48129">
        <ele>407.64</ele>
        <time>2013-11-08T15:19:34Z</time>
      </trkpt>
      <trkpt lat="43.5534" lon="6.48102">
        <ele>407.03</ele>
        <time>2013-11-08T15:19:50Z</time>
      </trkpt>
      <trkpt lat="43.55344" lon="6.48077">
        <ele>408.1</ele>
        <time>2013-11-08T15:20:08Z</time>
      </trkpt>
      <trkpt lat="43.55341" lon="6.48051">
        <ele>407.63</ele>
        <time>2013-11-08T15:20:22Z</time>
      </trkpt>
      <trkpt lat="43.5534" lon="6.48025">
        <ele>407.2</ele>
        <time>2013-11-08T15:20:40Z</time>
      </trkpt>
      <trkpt lat="43.55342" lon="6.47999">
        <ele>406.4</ele>
        <time>2013-11-08T15:20:58Z</time>
      </trkpt>
      <trkpt lat="43.55346" lon="6.47974">
        <ele>403.43</ele>
        <time>2013-11-08T15:21:16Z</time>
      </trkpt>
      <trkpt lat="43.5535" lon="6.47949">
        <ele>401.82</ele>
        <time>2013-11-08T15:21:32Z</time>
      </trkpt>
      <trkpt lat="43.55353" lon="6.47922">
        <ele>400.6</ele>
        <time>2013-11-08T15:21:50Z</time>
      </trkpt>
      <trkpt lat="43.55351" lon="6.47897">
        <ele>399.52</ele>
        <time>2013-11-08T15:22:08Z</time>
      </trkpt>
      <trkpt lat="43.55339" lon="6.47877">
        <ele>398.4</ele>
        <time>2013-11-08T15:22:24Z</time>
      </trkpt>
      <trkpt lat="43.55324" lon="6.4786">
        <ele>396.83</ele>
        <time>2013-11-08T15:22:40Z</time>
      </trkpt>
      <trkpt lat="43.5532" lon="6.47834">
        <ele>397.25</ele>
        <time>2013-11-08T15:22:58Z</time>
      </trkpt>
      <trkpt lat="43.5532" lon="6.47834">
        <ele>397.25</ele>
        <time>2013-11-08T15:22:58Z</time>
      </trkpt>
      <trkpt lat="43.55315" lon="6.47809">
        <ele>397.57</ele>
        <time>2013-11-08T15:24:13Z</time>
      </trkpt>
      <trkpt lat="43.5531" lon="6.47784">
        <ele>396.92</ele>
        <time>2013-11-08T15:24:23Z</time>
      </trkpt>
      <trkpt lat="43.55306" lon="6.47759">
        <ele>395.74</ele>
        <time>2013-11-08T15:24:45Z</time>
      </trkpt>
      <trkpt lat="43.55296" lon="6.47736">
        <ele>391.63</ele>
        <time>2013-11-08T15:25:07Z</time>
      </trkpt>
      <trkpt lat="43.5529" lon="6.4771">
        <ele>390.69</ele>
        <time>2013-11-08T15:25:27Z</time>
      </trkpt>
      <trkpt lat="43.55283" lon="6.47686">
        <ele>389.23</ele>
        <time>2013-11-08T15:25:41Z</time>
      </trkpt>
      <trkpt lat="43.55273" lon="6.47662">
        <ele>388.55</ele>
        <time>2013-11-08T15:26:11Z</time>
      </trkpt>
      <trkpt lat="43.55273" lon="6.47662">
        <ele>388.55</ele>
        <time>2013-11-08T15:26:11Z</time>
      </trkpt>
      <trkpt lat="43.5526" lon="6.47644">
        <ele>386.99</ele>
        <time>2013-11-08T15:26:31Z</time>
      </trkpt>
      <trkpt lat="43.55248" lon="6.47624">
        <ele>385.27</ele>
        <time>2013-11-08T15:26:51Z</time>
      </trkpt>
      <trkpt lat="43.55233" lon="6.47605">
        <ele>383.68</ele>
        <time>2013-11-08T15:27:09Z</time>
      </trkpt>
      <trkpt lat="43.5522" lon="6.47587">
        <ele>381.76</ele>
        <time>2013-11-08T15:27:29Z</time>
      </trkpt>
      <trkpt lat="43.55227" lon="6.47586">
        <ele>377.93</ele>
        <time>2013-11-08T15:28:05Z</time>
      </trkpt>
      <trkpt lat="43.55241" lon="6.47605">
        <ele>377.36</ele>
        <time>2013-11-08T15:28:27Z</time>
      </trkpt>
      <trkpt lat="43.55257" lon="6.47618">
        <ele>377.29</ele>
        <time>2013-11-08T15:28:47Z</time>
      </trkpt>
      <trkpt lat="43.55273" lon="6.47634">
        <ele>378.44</ele>
        <time>2013-11-08T15:29:11Z</time>
      </trkpt>
      <trkpt lat="43.55273" lon="6.47634">
        <ele>378.44</ele>
        <time>2013-11-08T15:29:11Z</time>
      </trkpt>
      <trkpt lat="43.55289" lon="6.47647">
        <ele>378.18</ele>
        <time>2013-11-08T15:29:31Z</time>
      </trkpt>
      <trkpt lat="43.55302" lon="6.47664">
        <ele>375.74</ele>
        <time>2013-11-08T15:29:53Z</time>
      </trkpt>
      <trkpt lat="43.55311" lon="6.47682">
        <ele>374.43</ele>
        <time>2013-11-08T15:31:41Z</time>
      </trkpt>
      <trkpt lat="43.55331" lon="6.47676">
        <ele>374.29</ele>
        <time>2013-11-08T15:32:25Z</time>
      </trkpt>
      <trkpt lat="43.55331" lon="6.47676">
        <ele>374.29</ele>
        <time>2013-11-08T15:32:25Z</time>
      </trkpt>
      <trkpt lat="43.55349" lon="6.47674">
        <ele>375.34</ele>
        <time>2013-11-08T15:32:51Z</time>
      </trkpt>
      <trkpt lat="43.55367" lon="6.47667">
        <ele>377.27</ele>
        <time>2013-11-08T15:33:21Z</time>
      </trkpt>
      <trkpt lat="43.55406" lon="6.47614">
        <ele>396.38</ele>
        <time>2013-11-08T15:36:51Z</time>
      </trkpt>
      <trkpt lat="43.55482" lon="6.47534">
        <ele>407.41</ele>
        <time>2013-11-08T15:40:19Z</time>
      </trkpt>
      <trkpt lat="43.55523" lon="6.47459">
        <ele>413.79</ele>
        <time>2013-11-08T15:42:03Z</time>
      </trkpt>
      <trkpt lat="43.55535" lon="6.47441">
        <ele>415.63</ele>
        <time>2013-11-08T15:42:21Z</time>
      </trkpt>
      <trkpt lat="43.55571" lon="6.47414">
        <ele>423.92</ele>
        <time>2013-11-08T15:43:49Z</time>
      </trkpt>
      <trkpt lat="43.55587" lon="6.474">
        <ele>425.74</ele>
        <time>2013-11-08T15:44:01Z</time>
      </trkpt>
      <trkpt lat="43.55604" lon="6.47391">
        <ele>427.75</ele>
        <time>2013-11-08T15:44:11Z</time>
      </trkpt>
      <trkpt lat="43.55604" lon="6.47391">
        <ele>427.75</ele>
        <time>2013-11-08T15:44:11Z</time>
      </trkpt>
      <trkpt lat="43.55621" lon="6.47378">
        <ele>427.44</ele>
        <time>2013-11-08T15:44:37Z</time>
      </trkpt>
      <trkpt lat="43.55635" lon="6.4736">
        <ele>425.68</ele>
        <time>2013-11-08T15:44:57Z</time>
      </trkpt>
      <trkpt lat="43.55644" lon="6.47336">
        <ele>423.15</ele>
        <time>2013-11-08T15:45:27Z</time>
      </trkpt>
      <trkpt lat="43.55656" lon="6.47316">
        <ele>422.9</ele>
        <time>2013-11-08T15:45:51Z</time>
      </trkpt>
      <trkpt lat="43.55663" lon="6.47294">
        <ele>424.83</ele>
        <time>2013-11-08T15:46:11Z</time>
      </trkpt>
      <trkpt lat="43.55674" lon="6.47273">
        <ele>425.03</ele>
        <time>2013-11-08T15:46:33Z</time>
      </trkpt>
      <trkpt lat="43.55688" lon="6.47253">
        <ele>427.06</ele>
        <time>2013-11-08T15:46:55Z</time>
      </trkpt>
      <trkpt lat="43.55697" lon="6.4723">
        <ele>428.21</ele>
        <time>2013-11-08T15:47:15Z</time>
      </trkpt>
      <trkpt lat="43.55697" lon="6.4723">
        <ele>428.21</ele>
        <time>2013-11-08T15:47:15Z</time>
      </trkpt>
      <trkpt lat="43.55706" lon="6.47208">
        <ele>429.87</ele>
        <time>2013-11-08T15:47:37Z</time>
      </trkpt>
      <trkpt lat="43.55715" lon="6.47185">
        <ele>428.2</ele>
        <time>2013-11-08T15:48:01Z</time>
      </trkpt>
      <trkpt lat="43.55722" lon="6.4716">
        <ele>428.35</ele>
        <time>2013-11-08T15:48:25Z</time>
      </trkpt>
      <trkpt lat="43.55725" lon="6.47134">
        <ele>431.29</ele>
        <time>2013-11-08T15:48:49Z</time>
      </trkpt>
      <trkpt lat="43.55737" lon="6.47112">
        <ele>437.44</ele>
        <time>2013-11-08T15:49:15Z</time>
      </trkpt>
      <trkpt lat="43.55746" lon="6.47091">
        <ele>439.74</ele>
        <time>2013-11-08T15:49:39Z</time>
      </trkpt>
      <trkpt lat="43.55757" lon="6.4707">
        <ele>440.92</ele>
        <time>2013-11-08T15:50:03Z</time>
      </trkpt>
      <trkpt lat="43.55766" lon="6.47047">
        <ele>441.49</ele>
        <time>2013-11-08T15:50:23Z</time>
      </trkpt>
      <trkpt lat="43.55766" lon="6.47047">
        <ele>441.49</ele>
        <time>2013-11-08T15:50:23Z</time>
      </trkpt>
      <trkpt lat="43.55782" lon="6.47031">
        <ele>441.56</ele>
        <time>2013-11-08T15:50:45Z</time>
      </trkpt>
      <trkpt lat="43.558" lon="6.47025">
        <ele>440.78</ele>
        <time>2013-11-08T15:51:05Z</time>
      </trkpt>
      <trkpt lat="43.55818" lon="6.47018">
        <ele>441.01</ele>
        <time>2013-11-08T15:51:29Z</time>
      </trkpt>
      <trkpt lat="43.55827" lon="6.46995">
        <ele>443.37</ele>
        <time>2013-11-08T15:51:49Z</time>
      </trkpt>
      <trkpt lat="43.55837" lon="6.46974">
        <ele>445.6</ele>
        <time>2013-11-08T15:52:10Z</time>
      </trkpt>
      <trkpt lat="43.55847" lon="6.46951">
        <ele>450.21</ele>
        <time>2013-11-08T15:52:30Z</time>
      </trkpt>
      <trkpt lat="43.5586" lon="6.46932">
        <ele>452.12</ele>
        <time>2013-11-08T15:52:56Z</time>
      </trkpt>
      <trkpt lat="43.55876" lon="6.46918">
        <ele>450.9</ele>
        <time>2013-11-08T15:53:18Z</time>
      </trkpt>
      <trkpt lat="43.55876" lon="6.46918">
        <ele>450.9</ele>
        <time>2013-11-08T15:53:18Z</time>
      </trkpt>
      <trkpt lat="43.55894" lon="6.46911">
        <ele>451.58</ele>
        <time>2013-11-08T15:53:40Z</time>
      </trkpt>
      <trkpt lat="43.55909" lon="6.46909">
        <ele>454.63</ele>
        <time>2013-11-08T15:53:58Z</time>
      </trkpt>
      <trkpt lat="43.55927" lon="6.46901">
        <ele>454.75</ele>
        <time>2013-11-08T15:54:22Z</time>
      </trkpt>
      <trkpt lat="43.55944" lon="6.46887">
        <ele>454.46</ele>
        <time>2013-11-08T15:54:46Z</time>
      </trkpt>
      <trkpt lat="43.55959" lon="6.46872">
        <ele>456.06</ele>
        <time>2013-11-08T15:55:10Z</time>
      </trkpt>
      <trkpt lat="43.5597" lon="6.46852">
        <ele>458.09</ele>
        <time>2013-11-08T15:55:34Z</time>
      </trkpt>
      <trkpt lat="43.55983" lon="6.46832">
        <ele>459.66</ele>
        <time>2013-11-08T15:56:00Z</time>
      </trkpt>
      <trkpt lat="43.56" lon="6.4682">
        <ele>461.59</ele>
        <time>2013-11-08T15:56:24Z</time>
      </trkpt>
      <trkpt lat="43.56" lon="6.4682">
        <ele>461.59</ele>
        <time>2013-11-08T15:56:24Z</time>
      </trkpt>
      <trkpt lat="43.56014" lon="6.46801">
        <ele>463.32</ele>
        <time>2013-11-08T15:56:48Z</time>
      </trkpt>
      <trkpt lat="43.56029" lon="6.46785">
        <ele>464.36</ele>
        <time>2013-11-08T15:57:16Z</time>
      </trkpt>
      <trkpt lat="43.56037" lon="6.4676">
        <ele>462.58</ele>
        <time>2013-11-08T15:57:46Z</time>
      </trkpt>
      <trkpt lat="43.5604" lon="6.46734">
        <ele>463.08</ele>
        <time>2013-11-08T15:58:04Z</time>
      </trkpt>
      <trkpt lat="43.56045" lon="6.46709">
        <ele>464.95</ele>
        <time>2013-11-08T15:58:24Z</time>
      </trkpt>
      <trkpt lat="43.56042" lon="6.46708">
        <ele>465.69</ele>
        <time>2013-11-08T15:58:52Z</time>
      </trkpt>
      <trkpt lat="43.56047" lon="6.46683">
        <ele>465.77</ele>
        <time>2013-11-08T15:59:20Z</time>
      </trkpt>
      <trkpt lat="43.56047" lon="6.46683">
        <ele>465.77</ele>
        <time>2013-11-08T15:59:20Z</time>
      </trkpt>
      <trkpt lat="43.56049" lon="6.46671">
        <ele>466.02</ele>
        <time>2013-11-08T16:00:14Z</time>
      </trkpt>
      <trkpt lat="43.56045" lon="6.46662">
        <ele>467.52</ele>
        <time>2013-11-08T16:00:56Z</time>
      </trkpt>
      <trkpt lat="43.56042" lon="6.46637">
        <ele>467.63</ele>
        <time>2013-11-08T16:02:12Z</time>
      </trkpt>
      <trkpt lat="43.56042" lon="6.46637">
        <ele>467.63</ele>
        <time>2013-11-08T16:02:12Z</time>
      </trkpt>
      <trkpt lat="43.56044" lon="6.46611">
        <ele>470.14</ele>
        <time>2013-11-08T16:02:46Z</time>
      </trkpt>
      <trkpt lat="43.56041" lon="6.46586">
        <ele>472.04</ele>
        <time>2013-11-08T16:03:16Z</time>
      </trkpt>
      <trkpt lat="43.5604" lon="6.4656">
        <ele>475.82</ele>
        <time>2013-11-08T16:03:38Z</time>
      </trkpt>
      <trkpt lat="43.56041" lon="6.46535">
        <ele>479.19</ele>
        <time>2013-11-08T16:04:26Z</time>
      </trkpt>
      <trkpt lat="43.56042" lon="6.46541">
        <ele>487.868286</ele>
      </trkpt>
      <trkpt lat="43.56056" lon="6.46525">
        <ele>489.120026</ele>
      </trkpt>
      <trkpt lat="43.56075" lon="6.46536">
        <ele>490.244934</ele>
      </trkpt>
      <trkpt lat="43.56095" lon="6.46567">
        <ele>491.508026</ele>
      </trkpt>
      <trkpt lat="43.56116" lon="6.46594">
        <ele>492.713654</ele>
      </trkpt>
      <trkpt lat="43.5613" lon="6.46609">
        <ele>494.59201</ele>
      </trkpt>
      <trkpt lat="43.5614" lon="6.46612">
        <ele>496.311005</ele>
      </trkpt>
      <trkpt lat="43.56145" lon="6.46615">
        <ele>497.692078</ele>
      </trkpt>
      <trkpt lat="43.56151" lon="6.46629">
        <ele>500.882874</ele>
      </trkpt>
      <trkpt lat="43.56156" lon="6.46673">
        <ele>504.494385</ele>
      </trkpt>
      <trkpt lat="43.56162" lon="6.46717">
        <ele>506.199371</ele>
      </trkpt>
      <trkpt lat="43.5617" lon="6.4677">
        <ele>507.715302</ele>
      </trkpt>
      <trkpt lat="43.56166" lon="6.46827">
        <ele>511.042755</ele>
      </trkpt>
      <trkpt lat="43.56161" lon="6.46887">
        <ele>515.716675</ele>
      </trkpt>
      <trkpt lat="43.56136" lon="6.46936">
        <ele>516.530884</ele>
      </trkpt>
      <trkpt lat="43.56117" lon="6.4697">
        <ele>519.486694</ele>
      </trkpt>
      <trkpt lat="43.56089" lon="6.46996">
        <ele>520.966858</ele>
      </trkpt>
      <trkpt lat="43.56058" lon="6.47034">
        <ele>523.020508</ele>
      </trkpt>
      <trkpt lat="43.56032" lon="6.4708">
        <ele>524.136047</ele>
      </trkpt>
      <trkpt lat="43.56" lon="6.47137">
        <ele>526.443787</ele>
      </trkpt>
      <trkpt lat="43.55983" lon="6.47162">
        <ele>524.593811</ele>
      </trkpt>
      <trkpt lat="43.55966" lon="6.47204">
        <ele>524.904846</ele>
      </trkpt>
      <trkpt lat="43.55965" lon="6.4723">
        <ele>526.829285</ele>
      </trkpt>
      <trkpt lat="43.55967" lon="6.47252">
        <ele>528.81665</ele>
      </trkpt>
      <trkpt lat="43.55978" lon="6.47288">
        <ele>532.740417</ele>
      </trkpt>
      <trkpt lat="43.55993" lon="6.47309">
        <ele>536.459717</ele>
      </trkpt>
      <trkpt lat="43.55998" lon="6.47322">
        <ele>536.974976</ele>
      </trkpt>
      <trkpt lat="43.5601" lon="6.47326">
        <ele>539.166931</ele>
      </trkpt>
      <trkpt lat="43.5602" lon="6.47335">
        <ele>539.881897</ele>
      </trkpt>
      <trkpt lat="43.56029" lon="6.47335">
        <ele>540.6073</ele>
      </trkpt>
      <trkpt lat="43.5604" lon="6.47331">
        <ele>541.802979</ele>
      </trkpt>
      <trkpt lat="43.56056" lon="6.47326">
        <ele>543.335144</ele>
      </trkpt>
      <trkpt lat="43.56056" lon="6.4734">
        <ele>542.625916</ele>
      </trkpt>
      <trkpt lat="43.56054" lon="6.47391">
        <ele>539.836914</ele>
      </trkpt>
      <trkpt lat="43.56054" lon="6.47385">
        <ele>540.252136</ele>
      </trkpt>
    </trkseg>
  </trk>
</gpx>